createdAt,value
2023-04-20T00:00:43.123Z,4.30
2023-04-20T00:02:05.707Z,5.25
2023-04-20T00:03:29.296Z,5.60
2023-04-20T00:04:52.311Z,4.82
2023-04-20T00:06:15.858Z,5.07
2023-04-20T00:07:41.538Z,4.65
2023-04-20T00:09:05.824Z,5.03
2023-04-20T00:10:28.259Z,5.00
2023-04-20T00:11:51.664Z,5.13
2023-04-20T00:13:15.076Z,4.13
2023-04-20T00:14:38.638Z,4.95
2023-04-20T00:16:03.049Z,4.63
2023-04-20T00:17:26.483Z,4.57
2023-04-20T00:18:50.438Z,4.15
2023-04-20T00:20:13.169Z,4.68
2023-04-20T00:21:36.742Z,2.80
2023-04-20T00:23:00.587Z,5.18
2023-04-20T00:24:23.968Z,5.25
2023-04-20T00:25:46.361Z,5.47
2023-04-20T00:27:09.717Z,5.03
2023-04-20T00:28:33.135Z,3.92
2023-04-20T00:29:56.520Z,4.35
2023-04-20T00:31:19.278Z,4.63
2023-04-20T00:32:42.801Z,4.70
2023-04-20T00:34:05.170Z,2.75
2023-04-20T00:35:28.513Z,5.10
2023-04-20T00:36:50.992Z,4.68
2023-04-20T00:38:15.779Z,4.95
2023-04-20T00:39:39.101Z,5.10
2023-04-20T00:41:01.552Z,4.38
2023-04-20T00:42:27.585Z,3.72
2023-04-20T00:43:52.282Z,4.40
2023-04-20T00:45:14.763Z,4.82
2023-04-20T00:46:38.277Z,4.53
2023-04-20T00:48:08.709Z,4.82
2023-04-20T00:49:31.419Z,4.80
2023-04-20T00:50:54.865Z,5.00
2023-04-20T00:52:17.432Z,4.57
2023-04-20T00:53:43.228Z,3.97
2023-04-20T00:55:06.792Z,5.00
2023-04-20T00:56:30.225Z,4.60
2023-04-20T00:57:53.448Z,4.03
2023-04-20T00:59:17.324Z,4.75
2023-04-20T01:00:40.579Z,3.70
2023-04-20T01:02:04.274Z,4.07
2023-04-20T01:03:28.229Z,4.18
2023-04-20T01:04:50.742Z,4.22
2023-04-20T01:06:15.204Z,4.47
2023-04-20T01:07:38.558Z,4.97
2023-04-20T01:09:03.283Z,4.07
2023-04-20T01:10:27.151Z,4.90
2023-04-20T01:11:50.780Z,4.55
2023-04-20T01:13:13.213Z,4.63
2023-04-20T01:14:36.628Z,4.28
2023-04-20T01:16:00.477Z,4.15
2023-04-20T01:17:24.179Z,4.18
2023-04-20T01:18:49.184Z,3.90
2023-04-20T01:20:13.247Z,4.47
2023-04-20T01:21:36.189Z,4.22
2023-04-20T01:23:01.055Z,4.40
2023-04-20T01:24:24.417Z,4.22
2023-04-20T01:25:46.796Z,4.80
2023-04-20T01:27:10.221Z,4.60
2023-04-20T01:28:32.604Z,4.13
2023-04-20T01:29:56.074Z,4.35
2023-04-20T01:31:18.529Z,4.85
2023-04-20T01:32:42.402Z,5.18
2023-04-20T01:34:05.805Z,4.93
2023-04-20T01:35:29.416Z,3.92
2023-04-20T01:36:52.802Z,3.70
2023-04-20T01:38:21.249Z,4.60
2023-04-20T01:39:45.767Z,3.70
2023-04-20T01:41:09.622Z,4.38
2023-04-20T01:42:33.136Z,5.45
2023-04-20T01:43:56.518Z,4.20
2023-04-20T01:45:19.035Z,4.05
2023-04-20T01:46:42.782Z,4.57
2023-04-20T01:48:05.738Z,4.32
2023-04-20T01:49:36.040Z,3.65
2023-04-20T01:50:59.487Z,4.63
2023-04-20T01:52:22.852Z,5.05
2023-04-20T01:53:47.655Z,5.07
2023-04-20T01:55:13.247Z,5.13
2023-04-20T01:56:37.031Z,4.78
2023-04-20T01:57:59.467Z,5.15
2023-04-20T01:59:22.849Z,5.80
2023-04-20T02:00:45.513Z,4.40
2023-04-20T02:02:09.084Z,5.78
2023-04-20T02:03:32.723Z,5.22
2023-04-20T02:04:55.331Z,3.95
2023-04-20T02:06:18.713Z,4.82
2023-04-20T02:07:41.129Z,5.35
2023-04-20T02:09:06.067Z,5.88
2023-04-20T02:10:28.555Z,5.68
2023-04-20T02:11:51.971Z,5.55
2023-04-20T02:13:15.435Z,5.82
2023-04-20T02:14:38.803Z,5.45
2023-04-20T02:16:01.360Z,5.68
2023-04-20T02:17:25.162Z,5.03
2023-04-20T02:18:48.607Z,6.22
2023-04-20T02:20:12.523Z,5.45
2023-04-20T02:21:36.081Z,4.70
2023-04-20T02:22:59.732Z,5.38
2023-04-20T02:24:23.499Z,5.88
2023-04-20T02:25:47.004Z,4.20
2023-04-20T02:27:09.564Z,5.30
2023-04-20T02:28:33.008Z,5.05
2023-04-20T02:29:56.575Z,5.38
2023-04-20T02:31:22.258Z,5.93
2023-04-20T02:32:44.809Z,6.10
2023-04-20T02:34:09.479Z,5.78
2023-04-20T02:35:32.238Z,5.95
2023-04-20T02:36:55.696Z,5.03
2023-04-20T02:38:19.264Z,5.43
2023-04-20T02:39:43.078Z,6.03
2023-04-20T02:41:06.571Z,5.07
2023-04-20T02:42:28.944Z,6.03
2023-04-20T02:43:52.336Z,4.85
2023-04-20T02:45:15.928Z,6.45
2023-04-20T02:46:38.441Z,5.35
2023-04-20T02:48:01.868Z,5.35
2023-04-20T02:49:24.388Z,6.15
2023-04-20T02:50:47.803Z,6.03
2023-04-20T02:52:10.337Z,6.00
2023-04-20T02:53:33.728Z,5.95
2023-04-20T02:54:57.509Z,6.20
2023-04-20T02:56:24.863Z,6.50
2023-04-20T02:57:48.218Z,5.90
2023-04-20T02:59:11.645Z,6.45
2023-04-20T03:00:34.253Z,7.03
2023-04-20T03:01:57.754Z,6.97
2023-04-20T03:03:21.265Z,6.40
2023-04-20T03:04:44.939Z,5.85
2023-04-20T03:06:07.922Z,6.03
2023-04-20T03:07:31.718Z,7.80
2023-04-20T03:08:54.146Z,7.03
2023-04-20T03:10:18.907Z,7.10
2023-04-20T03:11:41.706Z,8.13
2023-04-20T03:13:05.080Z,6.68
2023-04-20T03:14:27.456Z,6.90
2023-04-20T03:15:50.857Z,7.03
2023-04-20T03:17:14.241Z,7.00
2023-04-20T03:18:37.714Z,7.70
2023-04-20T03:20:00.178Z,7.63
2023-04-20T03:21:23.540Z,7.07
2023-04-20T03:22:46.928Z,7.60
2023-04-20T03:24:10.525Z,7.07
2023-04-20T03:25:35.446Z,8.05
2023-04-20T03:26:57.864Z,7.65
2023-04-20T03:28:21.234Z,6.38
2023-04-20T03:29:44.652Z,6.95
2023-04-20T03:31:08.538Z,7.78
2023-04-20T03:32:32.759Z,6.65
2023-04-20T03:33:56.300Z,7.38
2023-04-20T03:35:20.952Z,7.05
2023-04-20T03:36:44.389Z,8.20
2023-04-20T03:38:06.864Z,7.40
2023-04-20T03:39:30.264Z,7.40
2023-04-20T03:40:54.468Z,7.10
2023-04-20T03:42:17.854Z,7.80
2023-04-20T03:43:41.694Z,7.68
2023-04-20T03:45:06.928Z,8.00
2023-04-20T03:46:30.452Z,8.88
2023-04-20T03:47:53.219Z,6.75
2023-04-20T03:49:16.938Z,7.43
2023-04-20T03:50:40.569Z,8.43
2023-04-20T03:52:04.028Z,5.75
2023-04-20T03:53:26.582Z,5.65
2023-04-20T03:54:49.986Z,6.72
2023-04-20T03:56:14.738Z,8.55
2023-04-20T03:57:38.412Z,7.68
2023-04-20T03:59:01.850Z,7.93
2023-04-20T04:00:25.285Z,7.03
2023-04-20T04:01:48.699Z,7.75
2023-04-20T04:03:13.728Z,7.03
2023-04-20T04:04:37.439Z,8.25
2023-04-20T04:06:00.894Z,8.40
2023-04-20T04:07:24.351Z,7.78
2023-04-20T04:08:47.895Z,8.10
2023-04-20T04:10:12.162Z,7.32
2023-04-20T04:11:36.011Z,7.78
2023-04-20T04:12:59.414Z,8.60
2023-04-20T04:14:22.816Z,8.48
2023-04-20T04:15:45.353Z,8.27
2023-04-20T04:17:08.934Z,7.47
2023-04-20T04:18:33.212Z,7.40
2023-04-20T04:19:55.712Z,6.25
2023-04-20T04:21:19.213Z,8.02
2023-04-20T04:22:41.702Z,7.97
2023-04-20T04:24:05.216Z,7.78
2023-04-20T04:25:28.352Z,7.80
2023-04-20T04:26:56.282Z,8.45
2023-04-20T04:28:19.695Z,9.02
2023-04-20T04:29:42.576Z,8.95
2023-04-20T04:31:07.153Z,8.50
2023-04-20T04:32:30.072Z,9.45
2023-04-20T04:33:53.466Z,8.45
2023-04-20T04:35:16.226Z,8.40
2023-04-20T04:36:39.790Z,9.13
2023-04-20T04:38:03.249Z,8.73
2023-04-20T04:39:26.857Z,7.88
2023-04-20T04:40:52.350Z,9.45
2023-04-20T04:42:17.484Z,10.30
2023-04-20T04:43:41.534Z,8.38
2023-04-20T04:45:04.801Z,8.55
2023-04-20T04:46:28.723Z,8.60
2023-04-20T04:47:54.030Z,9.55
2023-04-20T04:49:17.824Z,8.63
2023-04-20T04:50:41.709Z,9.15
2023-04-20T04:52:04.361Z,9.07
2023-04-20T04:53:33.218Z,9.75
2023-04-20T04:54:56.579Z,9.48
2023-04-20T04:56:20.498Z,9.45
2023-04-20T04:57:45.229Z,9.40
2023-04-20T04:59:07.665Z,9.77
2023-04-20T05:00:31.386Z,7.95
2023-04-20T05:01:54.038Z,8.82
2023-04-20T05:03:17.592Z,9.35
2023-04-20T05:04:40.584Z,8.43
2023-04-20T05:06:04.207Z,8.05
2023-04-20T05:07:27.624Z,6.97
2023-04-20T05:08:51.050Z,6.65
2023-04-20T05:10:15.952Z,8.02
2023-04-20T05:11:39.531Z,7.80
2023-04-20T05:13:04.279Z,7.40
2023-04-20T05:14:26.686Z,7.40
2023-04-20T05:15:51.036Z,7.35
2023-04-20T05:17:13.464Z,7.35
2023-04-20T05:18:36.858Z,7.18
2023-04-20T05:19:59.384Z,8.15
2023-04-20T05:21:22.826Z,7.07
2023-04-20T05:22:46.306Z,8.93
2023-04-20T05:24:08.852Z,7.63
2023-04-20T05:25:32.686Z,7.93
2023-04-20T05:26:56.177Z,8.23
2023-04-20T05:28:21.387Z,6.18
2023-04-20T05:29:44.820Z,7.68
2023-04-20T05:31:09.209Z,7.20
2023-04-20T05:32:32.657Z,6.70
2023-04-20T05:33:56.047Z,8.32
2023-04-20T05:35:19.659Z,8.35
2023-04-20T05:36:43.059Z,7.93
2023-04-20T05:38:06.548Z,8.35
2023-04-20T05:39:29.950Z,7.28
2023-04-20T05:40:52.447Z,7.32
2023-04-20T05:42:16.054Z,8.25
2023-04-20T05:43:41.081Z,9.15
2023-04-20T05:45:04.941Z,8.75
2023-04-20T05:46:29.282Z,9.98
2023-04-20T05:47:56.295Z,7.97
2023-04-20T05:49:19.925Z,9.60
2023-04-20T05:50:43.402Z,8.77
2023-04-20T05:52:05.944Z,7.68
2023-04-20T05:53:29.381Z,9.80
2023-04-20T05:54:53.703Z,9.13
2023-04-20T05:56:18.442Z,9.75
2023-04-20T05:57:42.868Z,8.95
2023-04-20T05:59:07.715Z,7.75
2023-04-20T06:00:31.111Z,10.10
2023-04-20T06:01:56.434Z,8.80
2023-04-20T06:03:20.080Z,8.52
2023-04-20T06:04:44.135Z,10.07
2023-04-20T06:06:08.491Z,9.52
2023-04-20T06:07:31.172Z,10.13
2023-04-20T06:08:55.108Z,9.32
2023-04-20T06:10:18.619Z,10.27
2023-04-20T06:11:41.222Z,9.32
2023-04-20T06:13:04.706Z,9.95
2023-04-20T06:14:29.451Z,9.88
2023-04-20T06:15:54.116Z,9.98
2023-04-20T06:17:20.165Z,9.60
2023-04-20T06:18:44.450Z,10.02
2023-04-20T06:20:08.880Z,10.02
2023-04-20T06:21:32.423Z,10.77
2023-04-20T06:22:56.844Z,9.63
2023-04-20T06:24:20.369Z,10.13
2023-04-20T06:25:44.068Z,9.77
2023-04-20T06:27:07.435Z,10.40
2023-04-20T06:28:30.981Z,10.07
2023-04-20T06:29:55.899Z,9.65
2023-04-20T06:31:19.470Z,9.93
2023-04-20T06:32:42.893Z,10.13
2023-04-20T06:34:06.322Z,10.25
2023-04-20T06:35:29.806Z,10.55
2023-04-20T06:36:53.238Z,9.35
2023-04-20T06:38:16.767Z,9.00
2023-04-20T06:39:40.184Z,8.48
2023-04-20T06:41:06.268Z,8.88
2023-04-20T06:42:29.670Z,10.20
2023-04-20T06:43:53.075Z,8.57
2023-04-20T06:45:18.356Z,8.82
2023-04-20T06:46:40.851Z,9.80
2023-04-20T06:48:04.353Z,10.55
2023-04-20T06:49:26.862Z,9.32
2023-04-20T06:50:50.544Z,10.00
2023-04-20T06:52:14.070Z,10.20
2023-04-20T06:53:37.529Z,8.88
2023-04-20T06:55:01.548Z,9.00
2023-04-20T06:56:25.869Z,8.82
2023-04-20T06:57:49.333Z,8.05
2023-04-20T06:59:11.816Z,8.68
2023-04-20T07:00:37.092Z,10.30
2023-04-20T07:02:02.116Z,9.32
2023-04-20T07:03:26.197Z,10.13
2023-04-20T07:04:49.723Z,10.32
2023-04-20T07:06:13.287Z,9.13
2023-04-20T07:07:36.731Z,10.27
2023-04-20T07:09:00.189Z,9.88
2023-04-20T07:10:23.831Z,7.97
2023-04-20T07:11:47.350Z,9.50
2023-04-20T07:13:10.804Z,7.95
2023-04-20T07:14:34.286Z,9.25
2023-04-20T07:15:59.136Z,7.68
2023-04-20T07:17:22.567Z,9.40
2023-04-20T07:18:46.058Z,8.50
2023-04-20T07:20:09.524Z,7.55
2023-04-20T07:21:33.291Z,6.82
2023-04-20T07:22:56.926Z,9.57
2023-04-20T07:24:22.888Z,9.40
2023-04-20T07:25:46.459Z,8.77
2023-04-20T07:27:08.907Z,9.90
2023-04-20T07:28:32.322Z,9.30
2023-04-20T07:29:55.683Z,9.43
2023-04-20T07:31:20.593Z,7.63
2023-04-20T07:32:44.072Z,9.48
2023-04-20T07:34:07.537Z,9.02
2023-04-20T07:35:30.935Z,7.88
2023-04-20T07:36:54.617Z,7.47
2023-04-20T07:38:18.046Z,8.80
2023-04-20T07:39:40.505Z,8.77
2023-04-20T07:41:04.041Z,10.75
2023-04-20T07:42:27.847Z,10.13
2023-04-20T07:43:51.427Z,9.70
2023-04-20T07:45:15.101Z,9.35
2023-04-20T07:46:40.256Z,9.80
2023-04-20T07:48:05.526Z,9.60
2023-04-20T07:49:29.058Z,8.88
2023-04-20T07:50:52.488Z,9.82
2023-04-20T07:52:17.357Z,9.55
2023-04-20T07:53:41.122Z,9.98
2023-04-20T07:55:05.037Z,9.48
2023-04-20T07:56:28.612Z,8.25
2023-04-20T07:57:52.857Z,8.13
2023-04-20T07:59:16.661Z,7.90
2023-04-20T08:00:40.349Z,9.65
2023-04-20T08:02:05.744Z,9.50
2023-04-20T08:03:29.454Z,10.93
2023-04-20T08:04:53.218Z,8.70
2023-04-20T08:06:16.965Z,6.47
2023-04-20T08:07:40.668Z,9.40
2023-04-20T08:09:04.439Z,9.38
2023-04-20T08:10:28.021Z,9.85
2023-04-20T08:11:51.400Z,8.90
2023-04-20T08:13:14.833Z,8.50
2023-04-20T08:14:39.224Z,9.00
2023-04-20T08:16:02.627Z,8.70
2023-04-20T08:17:27.497Z,8.50
2023-04-20T08:18:51.066Z,7.85
2023-04-20T08:20:14.549Z,7.53
2023-04-20T08:21:38.056Z,8.68
2023-04-20T08:23:01.469Z,8.48
2023-04-20T08:24:24.932Z,8.52
2023-04-20T08:25:48.493Z,8.32
2023-04-20T08:27:11.925Z,6.50
2023-04-20T08:28:38.646Z,7.65
2023-04-20T08:30:04.233Z,8.10
2023-04-20T08:31:30.159Z,8.05
2023-04-20T08:32:55.046Z,8.05
2023-04-20T08:34:18.560Z,6.93
2023-04-20T08:35:42.107Z,7.63
2023-04-20T08:37:05.542Z,8.77
2023-04-20T08:38:33.773Z,7.85
2023-04-20T08:39:57.845Z,9.30
2023-04-20T08:41:21.268Z,8.43
2023-04-20T08:42:44.722Z,7.47
2023-04-20T08:44:09.086Z,8.43
2023-04-20T08:45:32.524Z,8.25
2023-04-20T08:46:55.966Z,7.47
2023-04-20T08:48:22.134Z,7.82
2023-04-20T08:49:46.519Z,9.00
2023-04-20T08:51:10.236Z,8.38
2023-04-20T08:52:35.579Z,9.23
2023-04-20T08:54:06.536Z,9.30
2023-04-20T08:55:30.285Z,8.88
2023-04-20T08:56:53.734Z,8.52
2023-04-20T08:58:17.573Z,9.90
2023-04-20T08:59:43.633Z,8.60
2023-04-20T09:01:07.650Z,9.63
2023-04-20T09:02:31.203Z,9.77
2023-04-20T09:03:56.310Z,10.88
2023-04-20T09:05:28.958Z,9.43
2023-04-20T09:06:53.843Z,9.35
2023-04-20T09:08:17.300Z,10.70
2023-04-20T09:09:41.240Z,10.25
2023-04-20T09:11:04.644Z,9.52
2023-04-20T09:12:30.258Z,10.43
2023-04-20T09:14:00.896Z,11.30
2023-04-20T09:15:27.887Z,10.57
2023-04-20T09:16:52.346Z,9.52
2023-04-20T09:18:17.428Z,7.03
2023-04-20T09:19:44.466Z,9.05
2023-04-20T09:21:11.548Z,9.27
2023-04-20T09:22:37.399Z,8.95
2023-04-20T09:24:06.494Z,8.02
2023-04-20T09:25:34.239Z,9.55
2023-04-20T09:26:57.879Z,10.68
2023-04-20T09:28:22.090Z,9.18
2023-04-20T09:29:46.017Z,9.50
2023-04-20T09:31:19.314Z,9.43
2023-04-20T09:32:43.064Z,10.20
2023-04-20T09:34:06.605Z,10.27
2023-04-20T09:35:31.743Z,10.45
2023-04-20T09:36:55.993Z,9.93
2023-04-20T09:38:26.440Z,9.15
2023-04-20T09:39:51.987Z,8.27
2023-04-20T09:41:16.204Z,8.85
2023-04-20T09:42:40.487Z,9.68
2023-04-20T09:44:04.123Z,10.05
2023-04-20T09:45:28.789Z,10.43
2023-04-20T09:46:52.297Z,6.88
2023-04-20T09:48:19.648Z,9.25
2023-04-20T09:49:45.026Z,8.77
2023-04-20T09:51:10.206Z,9.15
2023-04-20T09:52:33.581Z,9.65
2023-04-20T09:53:58.227Z,8.40
2023-04-20T09:55:22.036Z,8.43
2023-04-20T09:56:45.867Z,8.93
2023-04-20T09:58:08.309Z,9.38
2023-04-20T09:59:35.276Z,9.05
2023-04-20T10:00:58.708Z,8.38
2023-04-20T10:02:29.650Z,7.60
2023-04-20T10:03:54.921Z,7.30
2023-04-20T10:05:18.721Z,9.63
2023-04-20T10:06:54.777Z,11.43
2023-04-20T10:08:18.269Z,6.40
2023-04-20T10:09:41.711Z,8.10
2023-04-20T10:11:05.158Z,6.32
2023-04-20T10:12:28.614Z,7.78
2023-04-20T10:13:52.090Z,7.20
2023-04-20T10:15:15.609Z,8.60
2023-04-20T10:16:39.361Z,8.32
2023-04-20T10:18:03.003Z,7.28
2023-04-20T10:19:37.024Z,8.02
2023-04-20T10:21:09.424Z,6.97
2023-04-20T10:22:34.615Z,7.75
2023-04-20T10:23:58.905Z,8.00
2023-04-20T10:25:24.319Z,7.45
2023-04-20T10:26:48.737Z,7.10
2023-04-20T10:28:12.176Z,7.07
2023-04-20T10:29:36.593Z,7.47
2023-04-20T10:31:00.617Z,7.38
2023-04-20T10:32:25.572Z,7.30
2023-04-20T10:33:55.914Z,7.70
2023-04-20T10:35:19.540Z,7.22
2023-04-20T10:36:42.952Z,6.97
2023-04-20T10:38:07.744Z,7.85
2023-04-20T10:39:35.743Z,7.20
2023-04-20T10:40:59.199Z,6.68
2023-04-20T10:42:22.788Z,6.10
2023-04-20T10:43:46.258Z,7.07
2023-04-20T10:45:10.878Z,7.50
2023-04-20T10:46:34.390Z,7.15
2023-04-20T10:47:59.602Z,7.68
2023-04-20T10:49:28.807Z,7.30
2023-04-20T10:50:52.259Z,8.45
2023-04-20T10:52:15.684Z,7.57
2023-04-20T10:53:40.520Z,7.88
2023-04-20T10:55:04.330Z,7.05
2023-04-20T10:56:27.899Z,7.43
2023-04-20T10:57:51.797Z,7.28
2023-04-20T10:59:16.640Z,7.53
2023-04-20T11:00:40.513Z,7.32
2023-04-20T11:02:10.833Z,6.30
2023-04-20T11:03:35.558Z,7.55
2023-04-20T11:05:01.450Z,7.63
2023-04-20T11:06:24.886Z,7.10
2023-04-20T11:07:57.013Z,7.28
2023-04-20T11:09:24.805Z,7.50
2023-04-20T11:10:49.237Z,6.82
2023-04-20T11:12:14.843Z,7.32
2023-04-20T11:13:38.521Z,7.88
2023-04-20T11:15:03.009Z,6.38
2023-04-20T11:16:40.334Z,7.70
2023-04-20T11:18:11.917Z,8.07
2023-04-20T11:19:37.061Z,8.57
2023-04-20T11:20:59.732Z,8.57
2023-04-20T11:22:25.132Z,7.82
2023-04-20T11:23:48.949Z,7.93
2023-04-20T11:25:14.458Z,7.93
2023-04-20T11:26:40.463Z,8.13
2023-04-20T11:28:08.770Z,9.07
2023-04-20T11:29:34.015Z,8.25
2023-04-20T11:30:57.451Z,7.85
2023-04-20T11:32:21.081Z,8.23
2023-04-20T11:33:44.719Z,8.63
2023-04-20T11:35:12.388Z,8.75
2023-04-20T11:36:40.488Z,8.32
2023-04-20T11:38:04.030Z,8.60
2023-04-20T11:39:29.712Z,8.43
2023-04-20T11:40:54.541Z,8.50
2023-04-20T11:42:17.913Z,8.43
2023-04-20T11:43:41.335Z,7.97
2023-04-20T11:45:05.090Z,8.60
2023-04-20T11:46:28.661Z,8.27
2023-04-20T11:47:52.599Z,8.02
2023-04-20T11:49:16.917Z,8.40
2023-04-20T11:50:42.214Z,9.20
2023-04-20T11:52:06.600Z,8.43
2023-04-20T11:53:30.189Z,8.70
2023-04-20T11:54:53.639Z,7.90
2023-04-20T11:56:19.333Z,9.25
2023-04-20T11:57:43.349Z,8.88
2023-04-20T11:59:07.339Z,9.02
2023-04-20T12:00:31.052Z,8.45
2023-04-20T12:01:55.348Z,8.25
2023-04-20T12:03:18.820Z,8.13
2023-04-20T12:04:42.571Z,8.90
2023-04-20T12:06:06.206Z,7.90
2023-04-20T12:07:36.563Z,8.35
2023-04-20T12:08:59.983Z,9.10
2023-04-20T12:10:23.642Z,8.63
2023-04-20T12:11:48.390Z,8.45
2023-04-20T12:13:11.474Z,8.73
2023-04-20T12:14:35.798Z,8.52
2023-04-20T12:15:59.284Z,8.85
2023-04-20T12:17:22.854Z,7.93
2023-04-20T12:18:46.518Z,8.93
2023-04-20T12:20:12.430Z,9.10
2023-04-20T12:21:35.984Z,8.38
2023-04-20T12:22:59.365Z,8.65
2023-04-20T12:24:23.034Z,8.55
2023-04-20T12:25:46.634Z,9.32
2023-04-20T12:27:11.523Z,9.27
2023-04-20T12:28:35.011Z,8.88
2023-04-20T12:29:58.442Z,8.05
2023-04-20T12:31:25.885Z,8.38
2023-04-20T12:32:50.109Z,8.30
2023-04-20T12:34:13.776Z,8.63
2023-04-20T12:35:37.261Z,8.20
2023-04-20T12:37:00.944Z,8.30
2023-04-20T12:38:24.388Z,7.63
2023-04-20T12:39:47.772Z,8.00
2023-04-20T12:41:16.626Z,6.88
2023-04-20T12:42:41.647Z,7.95
2023-04-20T12:44:06.692Z,6.63
2023-04-20T12:45:31.695Z,8.40
2023-04-20T12:46:55.161Z,8.05
2023-04-20T12:48:18.871Z,8.43
2023-04-20T12:49:42.330Z,8.45
2023-04-20T12:51:05.768Z,8.45
2023-04-20T12:52:29.329Z,8.85
2023-04-20T12:53:52.882Z,8.38
2023-04-20T12:55:16.930Z,8.48
2023-04-20T12:56:40.379Z,8.73
2023-04-20T12:58:05.164Z,7.82
2023-04-20T12:59:28.628Z,8.52
2023-04-20T13:00:52.130Z,8.38
2023-04-20T13:02:15.701Z,8.73
2023-04-20T13:03:42.194Z,7.72
2023-04-20T13:05:06.289Z,7.20
2023-04-20T13:06:29.816Z,4.57
2023-04-20T13:07:53.225Z,7.40
2023-04-20T13:09:18.911Z,7.72
2023-04-20T13:10:43.454Z,8.30
2023-04-20T13:12:07.174Z,8.00
2023-04-20T13:13:31.943Z,8.35
2023-04-20T13:14:56.273Z,8.13
2023-04-20T13:16:19.672Z,9.00
2023-04-20T13:17:43.418Z,8.27
2023-04-20T13:19:06.862Z,8.40
2023-04-20T13:20:30.702Z,8.63
2023-04-20T13:21:53.116Z,7.43
2023-04-20T13:23:16.540Z,8.02
2023-04-20T13:24:39.914Z,8.10
2023-04-20T13:26:03.434Z,7.85
2023-04-20T13:27:26.890Z,7.88
2023-04-20T13:28:51.651Z,8.35
2023-04-20T13:30:15.873Z,8.70
2023-04-20T13:31:40.590Z,6.18
2023-04-20T13:33:04.195Z,6.68
2023-04-20T13:34:27.793Z,7.03
2023-04-20T13:35:51.444Z,9.68
2023-04-20T13:37:14.991Z,7.45
2023-04-20T13:38:38.397Z,7.50
2023-04-20T13:40:01.913Z,8.13
2023-04-20T13:41:25.390Z,7.63
2023-04-20T13:42:47.966Z,6.97
2023-04-20T13:44:16.068Z,7.20
2023-04-20T13:45:39.846Z,8.30
2023-04-20T13:47:03.335Z,7.93
2023-04-20T13:48:26.754Z,8.02
2023-04-20T13:49:50.220Z,7.88
2023-04-20T13:51:13.770Z,8.52
2023-04-20T13:52:37.320Z,8.18
2023-04-20T13:54:00.784Z,8.38
2023-04-20T13:55:26.821Z,8.90
2023-04-20T13:56:50.766Z,8.25
2023-04-20T13:58:21.802Z,7.63
2023-04-20T13:59:46.570Z,7.80
2023-04-20T14:01:12.096Z,8.45
2023-04-20T14:02:35.597Z,7.88
2023-04-20T14:03:59.365Z,6.97
2023-04-20T14:05:23.147Z,7.38
2023-04-20T14:06:46.513Z,6.80
2023-04-20T14:08:09.928Z,7.22
2023-04-20T14:09:33.421Z,6.55
2023-04-20T14:11:03.933Z,6.70
2023-04-20T14:12:28.351Z,7.43
2023-04-20T14:13:51.942Z,7.30
2023-04-20T14:15:16.772Z,6.72
2023-04-20T14:16:44.720Z,7.20
2023-04-20T14:18:07.175Z,7.00
2023-04-20T14:19:31.199Z,6.53
2023-04-20T14:20:54.629Z,5.03
2023-04-20T14:22:18.054Z,6.82
2023-04-20T14:23:41.421Z,7.07
2023-04-20T14:25:05.478Z,6.80
2023-04-20T14:26:28.881Z,6.60
2023-04-20T14:27:52.281Z,6.63
2023-04-20T14:29:15.722Z,6.60
2023-04-20T14:30:40.559Z,4.95
2023-04-20T14:32:04.192Z,6.18
2023-04-20T14:33:27.946Z,5.78
2023-04-20T14:34:51.388Z,5.43
2023-04-20T14:36:14.784Z,6.72
2023-04-20T14:37:38.212Z,7.65
2023-04-20T14:39:01.727Z,5.65
2023-04-20T14:40:25.339Z,7.20
2023-04-20T14:41:48.868Z,6.70
2023-04-20T14:43:12.311Z,6.25
2023-04-20T14:44:36.990Z,7.28
2023-04-20T14:46:02.517Z,6.72
2023-04-20T14:47:25.985Z,6.57
2023-04-20T14:48:49.417Z,6.15
2023-04-20T14:50:13.900Z,6.18
2023-04-20T14:51:37.344Z,6.88
2023-04-20T14:52:59.832Z,6.70
2023-04-20T14:54:23.217Z,5.93
2023-04-20T14:55:46.775Z,6.60
2023-04-20T14:57:10.169Z,5.88
2023-04-20T14:58:33.598Z,6.45
2023-04-20T14:59:57.011Z,6.53
2023-04-20T15:01:21.909Z,6.55
2023-04-20T15:02:45.543Z,6.70
2023-04-20T15:04:08.266Z,5.63
2023-04-20T15:05:32.110Z,5.30
2023-04-20T15:06:55.817Z,5.95
2023-04-20T15:08:19.228Z,5.03
2023-04-20T15:09:42.616Z,5.80
2023-04-20T15:11:06.013Z,3.28
2023-04-20T15:12:29.479Z,4.72
2023-04-20T15:13:54.161Z,5.35
2023-04-20T15:15:17.823Z,4.70
2023-04-20T15:16:42.830Z,5.72
2023-04-20T15:18:08.802Z,4.30
2023-04-20T15:19:31.201Z,4.95
2023-04-20T15:20:54.626Z,5.63
2023-04-20T15:22:17.101Z,4.88
2023-04-20T15:23:41.307Z,2.58
2023-04-20T15:25:03.973Z,4.82
2023-04-20T15:26:27.381Z,5.68
2023-04-20T15:27:50.940Z,4.05
2023-04-20T15:29:14.028Z,4.70
2023-04-20T15:30:37.536Z,4.63
2023-04-20T15:32:01.624Z,3.42
2023-04-20T15:33:25.052Z,5.15
2023-04-20T15:34:47.787Z,5.22
2023-04-20T15:36:11.690Z,3.08
2023-04-20T15:37:35.064Z,4.75
2023-04-20T15:38:58.516Z,3.70
2023-04-20T15:40:22.203Z,3.85
2023-04-20T15:41:45.758Z,4.38
2023-04-20T15:43:08.237Z,4.82
2023-04-20T15:44:32.066Z,3.03
2023-04-20T15:45:58.384Z,4.03
2023-04-20T15:47:23.606Z,4.03
2023-04-20T15:48:46.080Z,4.60
2023-04-20T15:50:09.988Z,3.88
2023-04-20T15:51:34.256Z,4.00
2023-04-20T15:52:57.696Z,4.55
2023-04-20T15:54:23.751Z,4.10
2023-04-20T15:55:47.363Z,4.63
2023-04-20T15:57:09.774Z,4.40
2023-04-20T15:58:33.319Z,4.60
2023-04-20T15:59:56.745Z,4.15
2023-04-20T16:01:20.936Z,4.57
2023-04-20T16:02:45.852Z,4.28
2023-04-20T16:04:08.609Z,4.18
2023-04-20T16:05:32.769Z,5.07
2023-04-20T16:06:55.991Z,4.15
2023-04-20T16:08:21.113Z,4.35
2023-04-20T16:09:44.602Z,3.40
2023-04-20T16:11:07.326Z,3.63
2023-04-20T16:12:30.819Z,4.18
2023-04-20T16:13:56.175Z,3.67
2023-04-20T16:15:19.873Z,3.92
2023-04-20T16:16:43.308Z,4.32
2023-04-20T16:18:08.106Z,2.75
2023-04-20T16:19:32.211Z,4.28
2023-04-20T16:20:55.656Z,3.33
2023-04-20T16:22:19.061Z,3.40
2023-04-20T16:23:42.460Z,4.40
2023-04-20T16:25:07.422Z,3.38
2023-04-20T16:26:30.898Z,3.90
2023-04-20T16:27:53.312Z,4.53
2023-04-20T16:29:17.050Z,4.30
2023-04-20T16:30:41.290Z,4.18
2023-04-20T16:32:04.761Z,3.97
2023-04-20T16:33:30.328Z,4.30
2023-04-20T16:34:53.844Z,4.50
2023-04-20T16:36:18.070Z,5.30
2023-04-20T16:37:40.469Z,4.38
2023-04-20T16:39:05.602Z,4.85
2023-04-20T16:40:28.989Z,4.20
2023-04-20T16:41:52.798Z,4.10
2023-04-20T16:43:16.252Z,3.95
2023-04-20T16:44:41.701Z,4.20
2023-04-20T16:46:05.512Z,5.68
2023-04-20T16:47:29.035Z,4.05
2023-04-20T16:48:54.591Z,3.88
2023-04-20T16:50:19.506Z,4.93
2023-04-20T16:51:43.133Z,4.30
2023-04-20T16:53:06.541Z,3.17
2023-04-20T16:54:29.936Z,4.82
2023-04-20T16:55:53.357Z,3.92
2023-04-20T16:57:16.455Z,3.90
2023-04-20T16:58:40.691Z,4.47
2023-04-20T17:00:05.941Z,4.57
2023-04-20T17:01:29.394Z,3.40
2023-04-20T17:02:53.030Z,4.55
2023-04-20T17:04:19.478Z,4.78
2023-04-20T17:05:43.334Z,4.72
2023-04-20T17:07:06.727Z,4.45
2023-04-20T17:08:30.126Z,4.13
2023-04-20T17:09:53.538Z,4.53
2023-04-20T17:11:19.197Z,3.67
2023-04-20T17:12:42.613Z,4.45
2023-04-20T17:14:06.158Z,4.25
2023-04-20T17:15:29.649Z,4.13
2023-04-20T17:16:56.651Z,4.32
2023-04-20T17:18:20.461Z,4.30
2023-04-20T17:19:45.211Z,3.60
2023-04-20T17:21:08.693Z,4.90
2023-04-20T17:22:32.200Z,3.42
2023-04-20T17:23:55.664Z,4.43
2023-04-20T17:25:19.335Z,4.78
2023-04-20T17:26:42.829Z,4.25
2023-04-20T17:28:06.926Z,4.82
2023-04-20T17:29:34.706Z,4.03
2023-04-20T17:30:58.132Z,4.00
2023-04-20T17:32:24.087Z,4.68
2023-04-20T17:33:47.799Z,4.97
2023-04-20T17:35:12.828Z,4.57
2023-04-20T17:36:36.340Z,5.10
2023-04-20T17:37:59.769Z,5.03
2023-04-20T17:39:23.737Z,4.13
2023-04-20T17:40:47.148Z,4.60
2023-04-20T17:42:10.780Z,4.70
2023-04-20T17:43:36.222Z,4.60
2023-04-20T17:44:59.678Z,4.95
2023-04-20T17:46:24.248Z,4.75
2023-04-20T17:47:47.759Z,4.38
2023-04-20T17:49:11.193Z,4.80
2023-04-20T17:50:36.596Z,4.78
2023-04-20T17:52:00.151Z,4.82
2023-04-20T17:53:23.596Z,6.03
2023-04-20T17:54:46.506Z,4.97
2023-04-20T17:56:10.751Z,4.68
2023-04-20T17:57:34.246Z,5.57
2023-04-20T17:58:57.645Z,4.43
2023-04-20T18:00:22.163Z,5.30
2023-04-20T18:01:45.677Z,5.55
2023-04-20T18:03:09.199Z,4.53
2023-04-20T18:04:32.912Z,5.32
2023-04-20T18:05:57.767Z,5.10
2023-04-20T18:07:21.195Z,4.63
2023-04-20T18:08:44.709Z,4.85
2023-04-20T18:10:09.453Z,4.78
2023-04-20T18:11:33.194Z,4.82
2023-04-20T18:12:56.636Z,4.43
2023-04-20T18:14:21.095Z,4.40
2023-04-20T18:15:45.030Z,4.45
2023-04-20T18:17:09.686Z,4.40
2023-04-20T18:18:33.135Z,5.03
2023-04-20T18:19:56.515Z,4.72
2023-04-20T18:21:20.686Z,5.43
2023-04-20T18:22:44.953Z,5.35
2023-04-20T18:24:08.474Z,5.10
2023-04-20T18:25:31.060Z,5.30
2023-04-20T18:26:54.711Z,5.10
2023-04-20T18:28:18.201Z,5.75
2023-04-20T18:29:41.821Z,5.35
2023-04-20T18:31:05.234Z,5.15
2023-04-20T18:32:30.904Z,5.60
2023-04-20T18:33:54.449Z,4.97
2023-04-20T18:35:19.358Z,5.05
2023-04-20T18:36:44.146Z,4.70
2023-04-20T18:38:08.035Z,4.97